sensor_id;sensor_type;location;lat;lon;timestamp;P1;durP1;ratioP1;P2;durP2;ratioP2
38611;SDS011;24368;52.156;20.788;2023-12-22T00:00:43;5.60;;;1.40;;
38611;SDS011;24368;52.156;20.788;2023-12-22T00:06:08;2.00;;;0.70;;
38611;SDS011;24368;52.156;20.788;2023-12-22T00:11:12;5.60;;;1.60;;
38611;SDS011;24368;52.156;20.788;2023-12-22T00:16:14;3.00;;;1.50;;
38611;SDS011;24368;52.156;20.788;2023-12-22T00:21:16;5.20;;;1.30;;
38611;SDS011;24368;52.156;20.788;2023-12-22T00:26:18;7.10;;;1.80;;
38611;SDS011;24368;52.156;20.788;2023-12-22T00:31:19;6.50;;;1.50;;
38611;SDS011;24368;52.156;20.788;2023-12-22T00:36:21;5.90;;;1.60;;
38611;SDS011;24368;52.156;20.788;2023-12-22T00:41:26;7.30;;;2.00;;
38611;SDS011;24368;52.156;20.788;2023-12-22T00:46:28;5.00;;;1.70;;
38611;SDS011;24368;52.156;20.788;2023-12-22T00:51:30;5.20;;;2.00;;
38611;SDS011;24368;52.156;20.788;2023-12-22T00:56:32;10.70;;;2.10;;
38611;SDS011;24368;52.156;20.788;2023-12-22T01:01:34;7.00;;;1.70;;
38611;SDS011;24368;52.156;20.788;2023-12-22T01:06:39;6.80;;;2.00;;
38611;SDS011;24368;52.156;20.788;2023-12-22T01:11:40;7.10;;;1.70;;
38611;SDS011;24368;52.156;20.788;2023-12-22T01:16:42;8.10;;;2.60;;
38611;SDS011;24368;52.156;20.788;2023-12-22T01:21:44;7.20;;;2.00;;
38611;SDS011;24368;52.156;20.788;2023-12-22T01:26:46;9.30;;;1.80;;
38611;SDS011;24368;52.156;20.788;2023-12-22T01:31:48;8.00;;;2.20;;
38611;SDS011;24368;52.156;20.788;2023-12-22T01:36:49;7.00;;;2.60;;
38611;SDS011;24368;52.156;20.788;2023-12-22T01:41:51;5.90;;;1.50;;
38611;SDS011;24368;52.156;20.788;2023-12-22T01:46:53;4.80;;;2.20;;
38611;SDS011;24368;52.156;20.788;2023-12-22T01:51:55;1.80;;;0.90;;
38611;SDS011;24368;52.156;20.788;2023-12-22T01:56:57;9.00;;;2.40;;
38611;SDS011;24368;52.156;20.788;2023-12-22T02:01:59;7.60;;;2.60;;
38611;SDS011;24368;52.156;20.788;2023-12-22T02:07:04;4.30;;;2.20;;
38611;SDS011;24368;52.156;20.788;2023-12-22T02:12:10;6.20;;;1.70;;
38611;SDS011;24368;52.156;20.788;2023-12-22T02:17:25;6.20;;;1.90;;
38611;SDS011;24368;52.156;20.788;2023-12-22T02:22:32;9.90;;;2.70;;
38611;SDS011;24368;52.156;20.788;2023-12-22T02:27:34;6.70;;;2.00;;
38611;SDS011;24368;52.156;20.788;2023-12-22T02:32:44;7.50;;;2.70;;
38611;SDS011;24368;52.156;20.788;2023-12-22T02:37:49;6.20;;;2.10;;
38611;SDS011;24368;52.156;20.788;2023-12-22T02:42:52;7.10;;;2.10;;
38611;SDS011;24368;52.156;20.788;2023-12-22T02:47:55;4.30;;;1.80;;
38611;SDS011;24368;52.156;20.788;2023-12-22T02:52:57;6.30;;;1.80;;
38611;SDS011;24368;52.156;20.788;2023-12-22T02:57:59;4.70;;;2.20;;
38611;SDS011;24368;52.156;20.788;2023-12-22T03:03:00;5.40;;;2.00;;
38611;SDS011;24368;52.156;20.788;2023-12-22T03:08:02;8.00;;;2.60;;
38611;SDS011;24368;52.156;20.788;2023-12-22T03:13:05;5.20;;;2.40;;
38611;SDS011;24368;52.156;20.788;2023-12-22T03:18:06;5.40;;;1.60;;
38611;SDS011;24368;52.156;20.788;2023-12-22T03:23:08;5.30;;;2.10;;
38611;SDS011;24368;52.156;20.788;2023-12-22T03:28:10;6.90;;;2.20;;
38611;SDS011;24368;52.156;20.788;2023-12-22T03:33:11;9.60;;;2.50;;
38611;SDS011;24368;52.156;20.788;2023-12-22T03:38:13;7.50;;;2.40;;
38611;SDS011;24368;52.156;20.788;2023-12-22T03:43:15;4.10;;;2.00;;
38611;SDS011;24368;52.156;20.788;2023-12-22T03:48:17;7.50;;;2.40;;
38611;SDS011;24368;52.156;20.788;2023-12-22T03:53:18;6.90;;;2.30;;
38611;SDS011;24368;52.156;20.788;2023-12-22T03:58:21;10.40;;;2.10;;
38611;SDS011;24368;52.156;20.788;2023-12-22T04:03:22;6.90;;;3.00;;
38611;SDS011;24368;52.156;20.788;2023-12-22T04:08:24;5.40;;;1.90;;
38611;SDS011;24368;52.156;20.788;2023-12-22T04:13:26;6.70;;;2.00;;
38611;SDS011;24368;52.156;20.788;2023-12-22T04:18:28;7.20;;;2.50;;
38611;SDS011;24368;52.156;20.788;2023-12-22T04:23:30;8.10;;;2.30;;
38611;SDS011;24368;52.156;20.788;2023-12-22T04:28:31;5.80;;;2.70;;
38611;SDS011;24368;52.156;20.788;2023-12-22T04:33:33;6.20;;;2.30;;
38611;SDS011;24368;52.156;20.788;2023-12-22T04:38:35;8.20;;;2.30;;
38611;SDS011;24368;52.156;20.788;2023-12-22T04:43:36;5.60;;;2.00;;
38611;SDS011;24368;52.156;20.788;2023-12-22T04:48:38;4.90;;;1.90;;
38611;SDS011;24368;52.156;20.788;2023-12-22T04:53:40;9.00;;;3.10;;
38611;SDS011;24368;52.156;20.788;2023-12-22T04:58:42;6.20;;;2.10;;
38611;SDS011;24368;52.156;20.788;2023-12-22T05:03:44;6.20;;;2.60;;
38611;SDS011;24368;52.156;20.788;2023-12-22T05:08:46;8.80;;;2.60;;
38611;SDS011;24368;52.156;20.788;2023-12-22T05:13:48;6.60;;;2.30;;
38611;SDS011;24368;52.156;20.788;2023-12-22T05:18:50;11.30;;;2.90;;
38611;SDS011;24368;52.156;20.788;2023-12-22T05:23:51;7.50;;;1.90;;
38611;SDS011;24368;52.156;20.788;2023-12-22T05:28:53;9.40;;;2.50;;
38611;SDS011;24368;52.156;20.788;2023-12-22T05:33:55;9.70;;;3.00;;
38611;SDS011;24368;52.156;20.788;2023-12-22T05:38:57;11.40;;;2.70;;
38611;SDS011;24368;52.156;20.788;2023-12-22T05:43:58;6.00;;;1.60;;
38611;SDS011;24368;52.156;20.788;2023-12-22T05:49:00;7.30;;;2.90;;
38611;SDS011;24368;52.156;20.788;2023-12-22T05:54:02;6.60;;;2.20;;
38611;SDS011;24368;52.156;20.788;2023-12-22T05:59:04;11.70;;;3.50;;
38611;SDS011;24368;52.156;20.788;2023-12-22T06:04:07;12.70;;;3.20;;
38611;SDS011;24368;52.156;20.788;2023-12-22T06:09:09;10.40;;;3.20;;
38611;SDS011;24368;52.156;20.788;2023-12-22T06:14:13;13.00;;;3.10;;
38611;SDS011;24368;52.156;20.788;2023-12-22T06:19:16;10.80;;;2.60;;
38611;SDS011;24368;52.156;20.788;2023-12-22T06:24:18;6.30;;;2.20;;
38611;SDS011;24368;52.156;20.788;2023-12-22T06:29:19;9.10;;;2.80;;
38611;SDS011;24368;52.156;20.788;2023-12-22T06:34:21;5.60;;;2.30;;
38611;SDS011;24368;52.156;20.788;2023-12-22T06:39:23;7.20;;;2.10;;
38611;SDS011;24368;52.156;20.788;2023-12-22T06:44:25;9.60;;;2.40;;
38611;SDS011;24368;52.156;20.788;2023-12-22T06:49:27;7.10;;;1.80;;
38611;SDS011;24368;52.156;20.788;2023-12-22T06:54:29;7.00;;;2.50;;
38611;SDS011;24368;52.156;20.788;2023-12-22T06:59:31;7.30;;;2.60;;
38611;SDS011;24368;52.156;20.788;2023-12-22T07:04:32;8.00;;;3.00;;
38611;SDS011;24368;52.156;20.788;2023-12-22T07:09:34;11.60;;;2.70;;
38611;SDS011;24368;52.156;20.788;2023-12-22T07:14:36;5.70;;;2.10;;
38611;SDS011;24368;52.156;20.788;2023-12-22T07:19:38;10.70;;;2.30;;
38611;SDS011;24368;52.156;20.788;2023-12-22T07:24:40;6.00;;;2.10;;
38611;SDS011;24368;52.156;20.788;2023-12-22T07:29:42;4.50;;;1.70;;
38611;SDS011;24368;52.156;20.788;2023-12-22T07:34:43;7.30;;;2.20;;
38611;SDS011;24368;52.156;20.788;2023-12-22T07:39:46;5.10;;;1.80;;
38611;SDS011;24368;52.156;20.788;2023-12-22T07:44:47;7.40;;;1.70;;
38611;SDS011;24368;52.156;20.788;2023-12-22T07:49:49;8.40;;;2.00;;
38611;SDS011;24368;52.156;20.788;2023-12-22T07:54:51;10.00;;;2.50;;
38611;SDS011;24368;52.156;20.788;2023-12-22T07:59:53;5.70;;;1.30;;
38611;SDS011;24368;52.156;20.788;2023-12-22T08:04:55;6.40;;;2.20;;
38611;SDS011;24368;52.156;20.788;2023-12-22T08:09:57;5.70;;;2.20;;
38611;SDS011;24368;52.156;20.788;2023-12-22T08:14:58;6.40;;;2.50;;
38611;SDS011;24368;52.156;20.788;2023-12-22T08:20:00;9.80;;;2.00;;
38611;SDS011;24368;52.156;20.788;2023-12-22T08:25:02;8.00;;;2.70;;
38611;SDS011;24368;52.156;20.788;2023-12-22T08:30:05;8.20;;;2.10;;
38611;SDS011;24368;52.156;20.788;2023-12-22T08:35:08;8.00;;;2.60;;
38611;SDS011;24368;52.156;20.788;2023-12-22T08:40:10;7.40;;;2.40;;
38611;SDS011;24368;52.156;20.788;2023-12-22T08:45:12;6.30;;;2.60;;
38611;SDS011;24368;52.156;20.788;2023-12-22T08:50:15;7.40;;;2.30;;
38611;SDS011;24368;52.156;20.788;2023-12-22T08:55:18;6.10;;;3.20;;
38611;SDS011;24368;52.156;20.788;2023-12-22T09:00:20;6.40;;;2.00;;
38611;SDS011;24368;52.156;20.788;2023-12-22T09:05:22;6.50;;;2.30;;
38611;SDS011;24368;52.156;20.788;2023-12-22T09:10:24;6.20;;;2.50;;
38611;SDS011;24368;52.156;20.788;2023-12-22T09:15:27;3.40;;;1.60;;
38611;SDS011;24368;52.156;20.788;2023-12-22T09:20:29;7.00;;;2.00;;
38611;SDS011;24368;52.156;20.788;2023-12-22T09:25:31;3.60;;;1.90;;
38611;SDS011;24368;52.156;20.788;2023-12-22T09:30:33;8.40;;;2.20;;
38611;SDS011;24368;52.156;20.788;2023-12-22T09:35:35;8.00;;;2.50;;
38611;SDS011;24368;52.156;20.788;2023-12-22T09:40:37;6.20;;;2.60;;
38611;SDS011;24368;52.156;20.788;2023-12-22T09:45:40;9.40;;;3.40;;
38611;SDS011;24368;52.156;20.788;2023-12-22T09:50:43;7.10;;;2.30;;
38611;SDS011;24368;52.156;20.788;2023-12-22T09:55:46;5.70;;;2.20;;
38611;SDS011;24368;52.156;20.788;2023-12-22T10:00:50;6.90;;;2.90;;
38611;SDS011;24368;52.156;20.788;2023-12-22T10:05:52;5.60;;;1.60;;
38611;SDS011;24368;52.156;20.788;2023-12-22T10:10:55;1.20;;;0.40;;
38611;SDS011;24368;52.156;20.788;2023-12-22T10:15:58;1.00;;;0.20;;
38611;SDS011;24368;52.156;20.788;2023-12-22T10:21:00;0.90;;;0.30;;
38611;SDS011;24368;52.156;20.788;2023-12-22T10:26:02;1.00;;;0.40;;
38611;SDS011;24368;52.156;20.788;2023-12-22T10:31:04;0.40;;;0.30;;
38611;SDS011;24368;52.156;20.788;2023-12-22T10:36:08;0.30;;;0.20;;
38611;SDS011;24368;52.156;20.788;2023-12-22T10:41:11;0.50;;;0.30;;
38611;SDS011;24368;52.156;20.788;2023-12-22T10:46:13;0.30;;;0.30;;
38611;SDS011;24368;52.156;20.788;2023-12-22T10:51:15;0.60;;;0.60;;
38611;SDS011;24368;52.156;20.788;2023-12-22T10:56:18;1.30;;;0.70;;
38611;SDS011;24368;52.156;20.788;2023-12-22T11:01:20;2.50;;;0.90;;
38611;SDS011;24368;52.156;20.788;2023-12-22T11:06:23;4.50;;;1.10;;
38611;SDS011;24368;52.156;20.788;2023-12-22T11:11:31;5.10;;;2.50;;
38611;SDS011;24368;52.156;20.788;2023-12-22T11:16:36;4.50;;;1.50;;
38611;SDS011;24368;52.156;20.788;2023-12-22T11:21:38;3.00;;;1.30;;
38611;SDS011;24368;52.156;20.788;2023-12-22T11:26:41;6.60;;;2.20;;
38611;SDS011;24368;52.156;20.788;2023-12-22T11:31:47;6.70;;;2.20;;
38611;SDS011;24368;52.156;20.788;2023-12-22T11:36:51;3.20;;;2.20;;
38611;SDS011;24368;52.156;20.788;2023-12-22T11:41:54;4.00;;;2.40;;
38611;SDS011;24368;52.156;20.788;2023-12-22T11:47:07;7.30;;;3.60;;
38611;SDS011;24368;52.156;20.788;2023-12-22T11:52:16;3.60;;;2.90;;
38611;SDS011;24368;52.156;20.788;2023-12-22T12:02:35;6.00;;;2.20;;
38611;SDS011;24368;52.156;20.788;2023-12-22T12:07:44;3.00;;;1.90;;
38611;SDS011;24368;52.156;20.788;2023-12-22T12:12:47;6.90;;;2.30;;
38611;SDS011;24368;52.156;20.788;2023-12-22T12:18:08;3.90;;;1.50;;
38611;SDS011;24368;52.156;20.788;2023-12-22T12:23:11;3.90;;;2.60;;
38611;SDS011;24368;52.156;20.788;2023-12-22T12:28:13;5.10;;;2.30;;
38611;SDS011;24368;52.156;20.788;2023-12-22T12:33:17;1.80;;;1.50;;
38611;SDS011;24368;52.156;20.788;2023-12-22T12:38:20;3.60;;;1.60;;
38611;SDS011;24368;52.156;20.788;2023-12-22T12:43:24;2.30;;;1.30;;
38611;SDS011;24368;52.156;20.788;2023-12-22T12:48:26;6.20;;;1.60;;
38611;SDS011;24368;52.156;20.788;2023-12-22T12:53:29;1.10;;;1.00;;
38611;SDS011;24368;52.156;20.788;2023-12-22T12:58:35;7.40;;;2.20;;
38611;SDS011;24368;52.156;20.788;2023-12-22T13:03:52;4.40;;;1.90;;
38611;SDS011;24368;52.156;20.788;2023-12-22T13:08:55;4.90;;;2.50;;
38611;SDS011;24368;52.156;20.788;2023-12-22T13:13:57;2.50;;;1.60;;
38611;SDS011;24368;52.156;20.788;2023-12-22T13:18:59;2.60;;;2.00;;
38611;SDS011;24368;52.156;20.788;2023-12-22T13:29:11;4.80;;;2.10;;
38611;SDS011;24368;52.156;20.788;2023-12-22T13:34:14;4.10;;;2.40;;
38611;SDS011;24368;52.156;20.788;2023-12-22T13:39:16;4.30;;;2.50;;
38611;SDS011;24368;52.156;20.788;2023-12-22T13:44:18;3.30;;;1.80;;
38611;SDS011;24368;52.156;20.788;2023-12-22T13:49:20;4.80;;;2.10;;
38611;SDS011;24368;52.156;20.788;2023-12-22T13:54:23;6.70;;;3.40;;
38611;SDS011;24368;52.156;20.788;2023-12-22T13:59:35;6.40;;;2.40;;
38611;SDS011;24368;52.156;20.788;2023-12-22T14:04:36;8.40;;;2.90;;
38611;SDS011;24368;52.156;20.788;2023-12-22T14:09:38;4.70;;;3.00;;
38611;SDS011;24368;52.156;20.788;2023-12-22T14:14:40;4.90;;;2.50;;
38611;SDS011;24368;52.156;20.788;2023-12-22T14:19:42;6.10;;;2.70;;
38611;SDS011;24368;52.156;20.788;2023-12-22T14:24:43;5.90;;;3.60;;
38611;SDS011;24368;52.156;20.788;2023-12-22T14:29:46;7.80;;;3.40;;
38611;SDS011;24368;52.156;20.788;2023-12-22T14:34:48;6.50;;;3.60;;
38611;SDS011;24368;52.156;20.788;2023-12-22T14:39:50;4.10;;;2.80;;
38611;SDS011;24368;52.156;20.788;2023-12-22T14:44:52;6.70;;;3.10;;
38611;SDS011;24368;52.156;20.788;2023-12-22T14:49:55;5.30;;;4.00;;
38611;SDS011;24368;52.156;20.788;2023-12-22T14:55:01;5.50;;;2.60;;
38611;SDS011;24368;52.156;20.788;2023-12-22T15:00:03;4.80;;;3.30;;
38611;SDS011;24368;52.156;20.788;2023-12-22T15:05:07;8.40;;;4.40;;
38611;SDS011;24368;52.156;20.788;2023-12-22T15:10:08;8.40;;;3.70;;
38611;SDS011;24368;52.156;20.788;2023-12-22T15:15:11;7.30;;;3.10;;
38611;SDS011;24368;52.156;20.788;2023-12-22T15:20:13;7.90;;;3.70;;
38611;SDS011;24368;52.156;20.788;2023-12-22T15:25:15;9.90;;;3.60;;
38611;SDS011;24368;52.156;20.788;2023-12-22T15:30:17;7.20;;;3.10;;
38611;SDS011;24368;52.156;20.788;2023-12-22T15:35:19;5.10;;;2.40;;
38611;SDS011;24368;52.156;20.788;2023-12-22T15:40:21;4.30;;;2.50;;
38611;SDS011;24368;52.156;20.788;2023-12-22T15:45:23;8.50;;;3.80;;
38611;SDS011;24368;52.156;20.788;2023-12-22T15:50:25;9.40;;;4.10;;
38611;SDS011;24368;52.156;20.788;2023-12-22T15:55:26;7.80;;;3.70;;
38611;SDS011;24368;52.156;20.788;2023-12-22T16:00:28;6.20;;;2.80;;
38611;SDS011;24368;52.156;20.788;2023-12-22T16:05:30;10.00;;;3.80;;
38611;SDS011;24368;52.156;20.788;2023-12-22T16:10:32;10.50;;;3.90;;
38611;SDS011;24368;52.156;20.788;2023-12-22T16:15:33;9.60;;;2.80;;
38611;SDS011;24368;52.156;20.788;2023-12-22T16:20:35;6.90;;;2.60;;
38611;SDS011;24368;52.156;20.788;2023-12-22T16:25:39;5.60;;;2.20;;
38611;SDS011;24368;52.156;20.788;2023-12-22T16:30:41;10.20;;;2.60;;
38611;SDS011;24368;52.156;20.788;2023-12-22T16:35:43;4.10;;;2.60;;
38611;SDS011;24368;52.156;20.788;2023-12-22T16:40:44;8.00;;;3.10;;
38611;SDS011;24368;52.156;20.788;2023-12-22T16:45:46;9.40;;;3.60;;
38611;SDS011;24368;52.156;20.788;2023-12-22T16:50:48;7.10;;;2.80;;
38611;SDS011;24368;52.156;20.788;2023-12-22T16:55:50;5.80;;;2.70;;
38611;SDS011;24368;52.156;20.788;2023-12-22T17:00:52;6.60;;;2.20;;
38611;SDS011;24368;52.156;20.788;2023-12-22T17:05:54;5.60;;;3.20;;
38611;SDS011;24368;52.156;20.788;2023-12-22T17:10:56;9.30;;;2.70;;
38611;SDS011;24368;52.156;20.788;2023-12-22T17:15:59;8.60;;;2.10;;
38611;SDS011;24368;52.156;20.788;2023-12-22T17:21:01;9.50;;;3.30;;
38611;SDS011;24368;52.156;20.788;2023-12-22T17:26:03;5.90;;;2.20;;
38611;SDS011;24368;52.156;20.788;2023-12-22T17:31:05;6.00;;;2.30;;
38611;SDS011;24368;52.156;20.788;2023-12-22T17:36:08;3.70;;;1.70;;
38611;SDS011;24368;52.156;20.788;2023-12-22T17:41:11;3.80;;;1.60;;
38611;SDS011;24368;52.156;20.788;2023-12-22T17:46:13;7.40;;;2.30;;
38611;SDS011;24368;52.156;20.788;2023-12-22T17:51:15;12.20;;;3.40;;
38611;SDS011;24368;52.156;20.788;2023-12-22T17:56:16;7.60;;;2.10;;
38611;SDS011;24368;52.156;20.788;2023-12-22T18:01:18;6.60;;;2.10;;
38611;SDS011;24368;52.156;20.788;2023-12-22T18:06:20;5.70;;;1.60;;
38611;SDS011;24368;52.156;20.788;2023-12-22T18:11:23;11.40;;;2.20;;
38611;SDS011;24368;52.156;20.788;2023-12-22T18:16:25;10.50;;;1.90;;
38611;SDS011;24368;52.156;20.788;2023-12-22T18:21:28;3.30;;;1.70;;
38611;SDS011;24368;52.156;20.788;2023-12-22T18:26:29;5.90;;;1.80;;
38611;SDS011;24368;52.156;20.788;2023-12-22T18:31:31;4.20;;;1.50;;
38611;SDS011;24368;52.156;20.788;2023-12-22T18:36:33;3.30;;;0.90;;
38611;SDS011;24368;52.156;20.788;2023-12-22T18:41:35;5.50;;;2.20;;
38611;SDS011;24368;52.156;20.788;2023-12-22T18:46:37;6.00;;;2.00;;
38611;SDS011;24368;52.156;20.788;2023-12-22T18:51:38;7.10;;;1.60;;
38611;SDS011;24368;52.156;20.788;2023-12-22T18:56:41;6.60;;;1.50;;
38611;SDS011;24368;52.156;20.788;2023-12-22T19:01:43;8.10;;;1.80;;
38611;SDS011;24368;52.156;20.788;2023-12-22T19:06:45;4.50;;;2.40;;
38611;SDS011;24368;52.156;20.788;2023-12-22T19:11:47;4.60;;;1.80;;
38611;SDS011;24368;52.156;20.788;2023-12-22T19:16:49;6.30;;;1.30;;
38611;SDS011;24368;52.156;20.788;2023-12-22T19:21:52;3.80;;;1.70;;
38611;SDS011;24368;52.156;20.788;2023-12-22T19:26:54;4.00;;;1.60;;
38611;SDS011;24368;52.156;20.788;2023-12-22T19:31:55;5.30;;;1.90;;
38611;SDS011;24368;52.156;20.788;2023-12-22T19:36:57;7.90;;;2.70;;
38611;SDS011;24368;52.156;20.788;2023-12-22T19:41:59;3.00;;;1.60;;
38611;SDS011;24368;52.156;20.788;2023-12-22T19:47:01;3.50;;;1.30;;
38611;SDS011;24368;52.156;20.788;2023-12-22T19:52:03;6.30;;;2.30;;
38611;SDS011;24368;52.156;20.788;2023-12-22T19:57:05;4.50;;;2.20;;
38611;SDS011;24368;52.156;20.788;2023-12-22T20:02:07;5.10;;;1.20;;
38611;SDS011;24368;52.156;20.788;2023-12-22T20:07:09;2.30;;;1.40;;
38611;SDS011;24368;52.156;20.788;2023-12-22T20:12:10;6.50;;;2.50;;
38611;SDS011;24368;52.156;20.788;2023-12-22T20:17:13;5.20;;;1.40;;
38611;SDS011;24368;52.156;20.788;2023-12-22T20:22:15;7.50;;;3.20;;
38611;SDS011;24368;52.156;20.788;2023-12-22T20:27:17;7.50;;;1.60;;
38611;SDS011;24368;52.156;20.788;2023-12-22T20:32:19;5.60;;;2.40;;
38611;SDS011;24368;52.156;20.788;2023-12-22T20:37:21;4.90;;;2.30;;
38611;SDS011;24368;52.156;20.788;2023-12-22T20:42:23;4.80;;;2.20;;
38611;SDS011;24368;52.156;20.788;2023-12-22T20:47:24;5.60;;;2.90;;
38611;SDS011;24368;52.156;20.788;2023-12-22T20:52:27;7.10;;;2.20;;
38611;SDS011;24368;52.156;20.788;2023-12-22T20:57:29;5.60;;;2.10;;
38611;SDS011;24368;52.156;20.788;2023-12-22T21:02:31;4.70;;;2.60;;
38611;SDS011;24368;52.156;20.788;2023-12-22T21:07:33;4.70;;;2.40;;
38611;SDS011;24368;52.156;20.788;2023-12-22T21:12:35;7.00;;;2.10;;
38611;SDS011;24368;52.156;20.788;2023-12-22T21:17:37;9.40;;;2.70;;
38611;SDS011;24368;52.156;20.788;2023-12-22T21:22:43;4.70;;;1.90;;
38611;SDS011;24368;52.156;20.788;2023-12-22T21:27:45;5.80;;;2.30;;
38611;SDS011;24368;52.156;20.788;2023-12-22T21:32:49;7.20;;;2.40;;
38611;SDS011;24368;52.156;20.788;2023-12-22T21:37:51;5.90;;;2.20;;
38611;SDS011;24368;52.156;20.788;2023-12-22T21:42:53;5.20;;;2.30;;
38611;SDS011;24368;52.156;20.788;2023-12-22T21:47:57;9.10;;;3.30;;
38611;SDS011;24368;52.156;20.788;2023-12-22T21:52:59;9.40;;;2.60;;
38611;SDS011;24368;52.156;20.788;2023-12-22T21:58:00;8.60;;;2.30;;
38611;SDS011;24368;52.156;20.788;2023-12-22T22:03:03;8.30;;;2.60;;
38611;SDS011;24368;52.156;20.788;2023-12-22T22:08:05;3.30;;;1.70;;
38611;SDS011;24368;52.156;20.788;2023-12-22T22:13:07;4.00;;;2.20;;
38611;SDS011;24368;52.156;20.788;2023-12-22T22:18:09;5.50;;;1.50;;
38611;SDS011;24368;52.156;20.788;2023-12-22T22:23:12;3.50;;;2.00;;
38611;SDS011;24368;52.156;20.788;2023-12-22T22:28:14;6.60;;;2.40;;
38611;SDS011;24368;52.156;20.788;2023-12-22T22:33:16;8.00;;;1.50;;
38611;SDS011;24368;52.156;20.788;2023-12-22T22:38:17;4.90;;;1.90;;
38611;SDS011;24368;52.156;20.788;2023-12-22T22:43:19;3.00;;;1.70;;
38611;SDS011;24368;52.156;20.788;2023-12-22T22:48:21;4.70;;;1.90;;
38611;SDS011;24368;52.156;20.788;2023-12-22T22:53:23;3.40;;;1.70;;
38611;SDS011;24368;52.156;20.788;2023-12-22T22:58:25;5.10;;;2.30;;
38611;SDS011;24368;52.156;20.788;2023-12-22T23:03:26;6.50;;;2.20;;
38611;SDS011;24368;52.156;20.788;2023-12-22T23:08:28;2.90;;;1.20;;
38611;SDS011;24368;52.156;20.788;2023-12-22T23:13:30;4.30;;;1.80;;
38611;SDS011;24368;52.156;20.788;2023-12-22T23:18:32;3.60;;;1.40;;
38611;SDS011;24368;52.156;20.788;2023-12-22T23:23:34;7.60;;;1.90;;
38611;SDS011;24368;52.156;20.788;2023-12-22T23:28:35;4.50;;;1.70;;
38611;SDS011;24368;52.156;20.788;2023-12-22T23:33:37;3.40;;;1.60;;
38611;SDS011;24368;52.156;20.788;2023-12-22T23:38:39;4.70;;;1.60;;
38611;SDS011;24368;52.156;20.788;2023-12-22T23:43:41;3.80;;;1.20;;
38611;SDS011;24368;52.156;20.788;2023-12-22T23:48:43;3.20;;;1.40;;
38611;SDS011;24368;52.156;20.788;2023-12-22T23:53:45;5.80;;;1.40;;
38611;SDS011;24368;52.156;20.788;2023-12-22T23:58:46;4.60;;;1.50;;
